Time;durP1;ratioP1;P1;durP2;ratioP2;P2;SDS_P1;SDS_P2;PMS_P1;PMS_P2;Temp;Humidity;BMP_temperature;BMP_pressure;BME280_temperature;BME280_humidity;BME280_pressure;Samples;Min_cycle;Max_cycle;Signal;HPM_P1;HPM_P2
2021/10/10 00:00:11;;;;;;;11.65;8.73;;;4.60;99.90;;;;;;4915274;29;20078;-81
2021/10/10 00:02:39;;;;;;;12.85;10.20;;;4.40;99.90;;;;;;4932160;29;20055;-80
2021/10/10 00:05:07;;;;;;;15.30;10.20;;;4.30;99.90;;;;;;4939762;29;20054;-81
2021/10/10 00:07:35;;;;;;;20.83;11.82;;;4.20;99.90;;;;;;4950799;29;20058;-82
2021/10/10 00:10:04;;;;;;;27.75;12.18;;;4.30;99.90;;;;;;4951760;28;20062;-82
2021/10/10 00:12:31;;;;;;;11.30;8.27;;;4.20;99.90;;;;;;4951109;28;20078;-83
2021/10/10 00:14:59;;;;;;;14.98;8.95;;;4.30;99.90;;;;;;4953297;29;20051;-82
2021/10/10 00:17:27;;;;;;;16.77;11.77;;;4.20;99.90;;;;;;4952642;29;20047;-83
2021/10/10 00:19:55;;;;;;;14.13;9.57;;;4.20;99.90;;;;;;4919965;29;20066;-82
2021/10/10 00:22:22;;;;;;;10.80;9.00;;;4.10;99.90;;;;;;4952576;28;20073;-82
2021/10/10 00:24:51;;;;;;;11.90;9.13;;;4.00;99.90;;;;;;4952430;29;20043;-83
2021/10/10 00:27:19;;;;;;;21.42;8.85;;;3.70;99.90;;;;;;4952574;29;20046;-82
2021/10/10 00:29:48;;;;;;;15.25;9.07;;;3.70;99.90;;;;;;4952580;28;20043;-82
2021/10/10 00:32:17;;;;;;;12.38;7.90;;;3.70;99.90;;;;;;4935782;29;20059;-82
2021/10/10 00:34:44;;;;;;;19.38;10.38;;;3.60;99.90;;;;;;4919711;29;20724;-83
2021/10/10 00:37:12;;;;;;;17.10;12.10;;;3.60;99.90;;;;;;4952285;29;20043;-82
2021/10/10 00:39:40;;;;;;;17.98;10.15;;;3.60;99.90;;;;;;4953046;29;20051;-82
2021/10/10 00:42:08;;;;;;;19.70;11.75;;;3.60;99.90;;;;;;4951995;28;20520;-82
2021/10/10 00:44:35;;;;;;;20.33;10.95;;;3.70;99.90;;;;;;4952102;29;20480;-83
2021/10/10 00:47:04;;;;;;;18.25;8.80;;;3.80;99.90;;;;;;4952685;29;20047;-82
2021/10/10 00:49:31;;;;;;;16.48;10.55;;;3.70;99.90;;;;;;4935218;29;20047;-82
2021/10/10 00:52:00;;;;;;;15.75;10.35;;;3.60;99.90;;;;;;4952645;29;20047;-83
2021/10/10 00:54:30;;;;;;;17.58;9.77;;;3.50;99.90;;;;;;4935197;29;20044;-82
2021/10/10 00:57:00;;;;;;;16.55;11.88;;;3.60;99.90;;;;;;4934609;29;20485;-82
2021/10/10 00:59:28;;;;;;;13.57;9.43;;;3.60;99.90;;;;;;4935337;29;20074;-82
2021/10/10 01:01:56;;;;;;;17.92;11.65;;;3.70;99.90;;;;;;4934322;29;20619;-82
2021/10/10 01:04:24;;;;;;;12.45;10.63;;;3.60;99.90;;;;;;4952519;29;20416;-82
2021/10/10 01:06:51;;;;;;;13.18;10.32;;;3.70;99.90;;;;;;4947732;28;20039;-82
2021/10/10 01:09:19;;;;;;;17.90;11.30;;;3.70;99.90;;;;;;4956158;28;20051;-83
2021/10/10 01:11:48;;;;;;;18.70;13.40;;;3.70;99.90;;;;;;4938443;29;20548;-82
2021/10/10 01:14:16;;;;;;;18.45;13.75;;;3.70;99.90;;;;;;4956207;29;20051;-82
2021/10/10 01:16:43;;;;;;;20.67;11.85;;;3.60;99.90;;;;;;4956070;29;20393;-83
2021/10/10 01:19:11;;;;;;;15.18;9.05;;;3.60;99.90;;;;;;4939316;29;20429;-82
2021/10/10 01:21:40;;;;;;;17.95;9.82;;;3.60;99.90;;;;;;4955482;28;20055;-82
2021/10/10 01:24:08;;;;;;;17.70;10.80;;;3.70;99.90;;;;;;4955638;29;20043;-82
2021/10/10 01:26:36;;;;;;;29.27;12.13;;;3.60;99.90;;;;;;4936250;29;20048;-82
2021/10/10 01:29:03;;;;;;;22.23;13.23;;;3.60;99.90;;;;;;4919436;29;20050;-82
2021/10/10 01:31:31;;;;;;;17.42;11.25;;;3.70;99.90;;;;;;4919742;29;20043;-82
2021/10/10 01:33:59;;;;;;;20.05;10.43;;;3.70;99.90;;;;;;4936498;29;20055;-83
2021/10/10 01:36:27;;;;;;;14.13;11.40;;;3.70;99.90;;;;;;4936428;29;20086;-82
2021/10/10 01:38:54;;;;;;;21.17;12.68;;;3.80;99.90;;;;;;4936480;29;20058;-82
2021/10/10 01:41:22;;;;;;;15.32;12.02;;;3.70;99.90;;;;;;4918953;29;20054;-82
2021/10/10 01:43:50;;;;;;;15.85;9.90;;;3.70;99.90;;;;;;4919338;29;20069;-83
2021/10/10 01:46:17;;;;;;;24.58;12.57;;;3.80;99.90;;;;;;4936373;29;20043;-82
2021/10/10 01:48:45;;;;;;;28.65;12.68;;;3.80;99.90;;;;;;4919417;29;20051;-82
2021/10/10 01:51:14;;;;;;;20.13;13.38;;;3.80;99.90;;;;;;4936637;29;20058;-82
2021/10/10 01:53:42;;;;;;;17.05;12.32;;;3.80;99.90;;;;;;4936065;29;20401;-83
2021/10/10 01:56:10;;;;;;;19.95;13.00;;;3.80;99.90;;;;;;4936623;29;20055;-82
2021/10/10 01:58:41;;;;;;;16.40;12.95;;;3.90;99.90;;;;;;4935378;29;20413;-82
2021/10/10 02:01:08;;;;;;;21.75;11.77;;;3.90;99.90;;;;;;4918576;29;20047;-81
2021/10/10 02:03:37;;;;;;;23.90;12.65;;;3.90;99.90;;;;;;4905845;29;20501;-81
2021/10/10 02:06:04;;;;;;;16.45;12.70;;;3.80;99.90;;;;;;4954951;28;20054;-81
2021/10/10 02:08:32;;;;;;;20.92;14.05;;;3.80;99.90;;;;;;4953696;28;20077;-82
2021/10/10 02:11:00;;;;;;;16.38;10.98;;;3.80;99.90;;;;;;4955229;29;20047;-82
2021/10/10 02:13:27;;;;;;;22.30;12.75;;;3.80;99.90;;;;;;4954345;28;20082;-81
2021/10/10 02:15:57;;;;;;;16.13;11.93;;;3.80;99.90;;;;;;4938152;29;20047;-82
2021/10/10 02:18:24;;;;;;;21.42;13.30;;;3.80;99.90;;;;;;4954054;28;20043;-82
2021/10/10 02:20:52;;;;;;;21.38;11.63;;;3.80;99.90;;;;;;4954488;28;20058;-82
2021/10/10 02:23:22;;;;;;;19.35;10.70;;;3.70;99.90;;;;;;4955160;29;20047;-82
2021/10/10 02:25:50;;;;;;;16.20;11.88;;;3.80;99.90;;;;;;4954728;29;20070;-81
2021/10/10 02:28:19;;;;;;;18.92;14.73;;;3.80;99.90;;;;;;4954570;29;20055;-81
2021/10/10 02:30:49;;;;;;;16.35;11.93;;;3.80;99.90;;;;;;4954081;28;20070;-82
2021/10/10 02:33:17;;;;;;;24.02;11.30;;;3.80;99.90;;;;;;4937229;29;20066;-82
2021/10/10 02:35:45;;;;;;;27.38;14.32;;;3.80;99.90;;;;;;4937795;29;20058;-82
2021/10/10 02:38:13;;;;;;;16.17;11.77;;;3.70;99.90;;;;;;4936843;29;20051;-82
2021/10/10 02:40:41;;;;;;;22.25;12.82;;;3.80;99.90;;;;;;4936854;29;20067;-82
2021/10/10 02:43:09;;;;;;;19.15;13.27;;;3.70;99.90;;;;;;4954090;29;20058;-82
2021/10/10 02:45:37;;;;;;;20.80;11.57;;;3.70;99.90;;;;;;4953870;29;20086;-82
2021/10/10 02:48:06;;;;;;;24.48;11.25;;;3.70;99.90;;;;;;4942732;29;20058;-82
2021/10/10 02:50:34;;;;;;;23.65;12.82;;;3.70;99.90;;;;;;4935022;29;20048;-82
2021/10/10 02:53:03;;;;;;;26.95;13.93;;;3.70;99.90;;;;;;4934696;29;20378;-82
2021/10/10 02:55:31;;;;;;;23.10;13.60;;;3.70;99.90;;;;;;4935576;29;20055;-82
2021/10/10 02:57:59;;;;;;;24.33;16.15;;;3.80;99.90;;;;;;4934055;29;20048;-82
2021/10/10 03:00:27;;;;;;;19.75;13.73;;;3.60;99.90;;;;;;4934465;29;20497;-82
2021/10/10 03:02:56;;;;;;;20.35;15.23;;;3.70;99.90;;;;;;4935257;29;20054;-82
2021/10/10 03:05:24;;;;;;;20.08;12.32;;;3.70;99.90;;;;;;4950874;28;20489;-82
2021/10/10 03:07:52;;;;;;;13.82;12.10;;;3.60;99.90;;;;;;4954199;29;20051;-82
2021/10/10 03:10:19;;;;;;;23.27;12.45;;;3.50;99.90;;;;;;4953444;28;20048;-81
2021/10/10 03:12:47;;;;;;;25.08;12.40;;;3.60;99.90;;;;;;4953065;28;20051;-81
2021/10/10 03:15:15;;;;;;;17.38;11.45;;;3.60;99.90;;;;;;4954272;29;20059;-82
2021/10/10 03:17:42;;;;;;;21.10;15.52;;;3.40;99.90;;;;;;4953711;28;20106;-82
2021/10/10 03:20:12;;;;;;;21.45;12.75;;;3.40;99.90;;;;;;4953936;29;20047;-82
2021/10/10 03:22:39;;;;;;;25.73;13.85;;;3.30;99.90;;;;;;4966824;28;20057;-82
2021/10/10 03:25:07;;;;;;;16.00;13.02;;;3.40;99.90;;;;;;4955879;28;20055;-82
2021/10/10 03:27:35;;;;;;;20.00;14.68;;;3.30;99.90;;;;;;4934333;29;20040;-82
2021/10/10 03:30:03;;;;;;;20.33;12.75;;;3.30;99.90;;;;;;4933617;29;20081;-82
2021/10/10 03:32:31;;;;;;;19.25;13.60;;;3.30;99.90;;;;;;4934424;29;20050;-81
2021/10/10 03:34:59;;;;;;;20.38;14.65;;;3.40;99.90;;;;;;4934879;29;20055;-82
2021/10/10 03:37:27;;;;;;;21.48;14.85;;;3.30;99.90;;;;;;4934086;29;20070;-82
2021/10/10 03:39:58;;;;;;;;;;;3.20;99.90;;;;;;4933923;29;20082;-82
2021/10/10 03:42:26;;;;;;;19.05;12.93;;;3.20;99.90;;;;;;4916413;29;19926;-82
2021/10/10 03:44:54;;;;;;;24.20;16.30;;;3.20;99.90;;;;;;4934207;29;20058;-82
2021/10/10 03:47:21;;;;;;;16.52;11.93;;;3.10;99.90;;;;;;4917258;29;20052;-82
2021/10/10 03:49:49;;;;;;;25.23;11.65;;;3.20;99.90;;;;;;4916629;29;20055;-81
2021/10/10 03:52:16;;;;;;;23.05;14.43;;;3.10;99.90;;;;;;4933955;29;20066;-82
2021/10/10 03:57:12;;;;;;;20.73;15.10;;;3.10;99.90;;;;;;4933187;29;20063;-82
2021/10/10 03:59:41;;;;;;;18.38;11.32;;;3.10;99.90;;;;;;4934092;29;20129;-81
2021/10/10 04:02:09;;;;;;;22.17;13.57;;;3.00;99.90;;;;;;4933781;29;20062;-82
2021/10/10 04:04:37;;;;;;;16.75;11.35;;;3.10;99.90;;;;;;4953505;28;20242;-81
2021/10/10 04:07:04;;;;;;;23.08;11.52;;;3.10;99.90;;;;;;4972441;28;20051;-82
2021/10/10 04:09:32;;;;;;;18.50;11.82;;;3.10;99.90;;;;;;4971940;28;20055;-82
2021/10/10 04:12:00;;;;;;;25.25;13.98;;;3.10;99.90;;;;;;4971471;28;20419;-82
2021/10/10 04:14:27;;;;;;;19.80;12.20;;;3.10;99.90;;;;;;4941773;29;20056;-82
2021/10/10 04:16:55;;;;;;;23.35;14.73;;;3.10;99.90;;;;;;4933584;29;20058;-82
2021/10/10 04:19:23;;;;;;;20.55;14.45;;;3.00;99.90;;;;;;4933722;29;20058;-82
2021/10/10 04:21:50;;;;;;;20.30;13.40;;;3.00;99.90;;;;;;4931766;29;20052;-89
2021/10/10 04:24:18;;;;;;;20.52;11.13;;;2.80;99.90;;;;;;4932303;29;20043;-81
2021/10/10 04:26:46;;;;;;;16.70;10.30;;;2.70;99.90;;;;;;4931540;29;20048;-81
2021/10/10 04:29:14;;;;;;;14.52;8.82;;;2.60;99.90;;;;;;4933595;29;20048;-81
2021/10/10 04:31:42;;;;;;;14.00;11.18;;;2.40;99.90;;;;;;4933935;29;20052;-81
2021/10/10 04:34:11;;;;;;;18.90;10.43;;;2.30;99.90;;;;;;4932402;29;20051;-81
2021/10/10 04:36:39;;;;;;;17.60;9.43;;;2.20;99.90;;;;;;4933192;29;20055;-81
2021/10/10 04:39:07;;;;;;;14.73;11.95;;;2.20;99.90;;;;;;4934039;29;20511;-81
2021/10/10 04:41:34;;;;;;;16.98;10.60;;;2.30;99.90;;;;;;4932400;29;20047;-81
2021/10/10 04:44:03;;;;;;;17.80;12.25;;;2.30;99.90;;;;;;4933711;29;20055;-81
2021/10/10 04:46:30;;;;;;;16.40;10.80;;;2.30;99.90;;;;;;4932955;29;20052;-81
2021/10/10 04:48:58;;;;;;;20.70;12.25;;;2.40;99.90;;;;;;4932944;29;20052;-81
2021/10/10 04:51:26;;;;;;;20.58;12.57;;;2.40;99.90;;;;;;4916341;29;20055;-81
2021/10/10 04:53:54;;;;;;;14.73;10.68;;;2.40;99.90;;;;;;4916173;29;20051;-81
2021/10/10 04:56:22;;;;;;;17.77;12.13;;;2.40;99.90;;;;;;4916498;29;20056;-81
2021/10/10 04:58:50;;;;;;;23.70;12.05;;;2.40;99.90;;;;;;4932397;29;20055;-81
2021/10/10 05:01:18;;;;;;;23.42;13.52;;;2.50;99.90;;;;;;4915784;29;20048;-81
2021/10/10 05:03:46;;;;;;;26.52;10.50;;;2.60;99.90;;;;;;4919934;29;20051;-81
2021/10/10 05:06:14;;;;;;;19.98;14.38;;;2.50;99.90;;;;;;4950753;29;20039;-81
2021/10/10 05:08:41;;;;;;;18.40;11.23;;;2.60;99.90;;;;;;4952020;28;20062;-81
2021/10/10 05:11:09;;;;;;;19.58;12.10;;;2.50;99.90;;;;;;4952160;29;20055;-81
2021/10/10 05:13:37;;;;;;;13.98;11.40;;;2.60;99.90;;;;;;4951406;28;20580;-81
2021/10/10 05:16:04;;;;;;;15.55;11.88;;;2.60;99.90;;;;;;4952600;29;20039;-81
2021/10/10 05:18:32;;;;;;;12.60;8.93;;;2.40;99.90;;;;;;4951108;29;20058;-81
2021/10/10 05:21:00;;;;;;;15.60;10.50;;;2.40;99.90;;;;;;4950572;28;20051;-81
2021/10/10 05:23:28;;;;;;;19.95;10.75;;;2.40;99.90;;;;;;4971609;28;20053;-81
2021/10/10 05:25:56;;;;;;;15.80;12.18;;;2.20;99.90;;;;;;4941660;28;20051;-81
2021/10/10 05:28:27;;;;;;;19.08;9.95;;;1.90;99.90;;;;;;4932660;29;20047;-80
2021/10/10 05:30:55;;;;;;;;;;;1.60;99.90;;;;;;4932947;29;20051;-81
2021/10/10 05:33:23;;;;;;;21.55;12.88;;;1.40;99.90;;;;;;4932988;29;20380;-81
2021/10/10 05:35:50;;;;;;;18.48;12.55;;;1.40;99.90;;;;;;4916450;29;20051;-81
2021/10/10 05:38:18;;;;;;;18.67;13.07;;;1.40;99.90;;;;;;4932747;29;20048;-80
2021/10/10 05:40:46;;;;;;;16.95;11.63;;;1.40;99.90;;;;;;4932468;29;20059;-80
2021/10/10 05:43:16;;;;;;;17.25;11.68;;;1.40;99.90;;;;;;4932695;29;20799;-80
2021/10/10 05:45:44;;;;;;;18.83;10.60;;;1.40;99.90;;;;;;4931528;29;20051;-82
2021/10/10 05:48:12;;;;;;;18.90;12.52;;;1.40;99.90;;;;;;4914373;29;20059;-81
2021/10/10 05:50:42;;;;;;;15.27;10.07;;;1.40;99.90;;;;;;4930847;29;20301;-81
2021/10/10 05:53:10;;;;;;;13.95;10.20;;;1.40;99.90;;;;;;4933105;29;20047;-81
2021/10/10 05:55:39;;;;;;;18.40;11.57;;;1.50;99.90;;;;;;4935092;29;20052;-82
2021/10/10 05:58:09;;;;;;;11.95;7.93;;;1.40;99.90;;;;;;4932956;29;20052;-81
2021/10/10 06:00:37;;;;;;;15.43;12.18;;;1.40;99.90;;;;;;4916934;29;20068;-80
2021/10/10 06:03:08;;;;;;;13.13;10.07;;;1.40;99.90;;;;;;4917818;29;20063;-82
2021/10/10 06:05:35;;;;;;;16.80;12.73;;;1.40;99.90;;;;;;4969837;28;20486;-82
2021/10/10 06:08:04;;;;;;;17.42;10.30;;;1.50;99.90;;;;;;4972995;28;20057;-80
2021/10/10 06:10:32;;;;;;;12.80;10.20;;;1.50;99.90;;;;;;4972245;28;20055;-81
2021/10/10 06:13:01;;;;;;;14.10;10.73;;;1.50;99.90;;;;;;4970852;28;20488;-80
2021/10/10 06:15:29;;;;;;;17.20;12.40;;;1.60;99.90;;;;;;4937663;28;20068;-80
2021/10/10 06:17:56;;;;;;;15.15;11.38;;;1.60;99.90;;;;;;4933912;29;20047;-80
2021/10/10 06:20:24;;;;;;;14.20;9.90;;;1.60;99.90;;;;;;4917024;29;20048;-81
2021/10/10 06:22:54;;;;;;;12.48;11.20;;;1.70;99.90;;;;;;4916146;29;20498;-81
2021/10/10 06:25:22;;;;;;;16.33;10.35;;;1.70;99.90;;;;;;4901215;29;20063;-81
2021/10/10 06:27:49;;;;;;;15.07;13.48;;;1.80;99.90;;;;;;4932853;29;20063;-80
2021/10/10 06:30:17;;;;;;;10.23;7.70;;;1.90;99.90;;;;;;4933833;29;20461;-80
2021/10/10 06:32:48;;;;;;;12.45;10.35;;;1.90;99.90;;;;;;4933583;29;20521;-80
2021/10/10 06:35:17;;;;;;;15.80;13.02;;;2.00;99.90;;;;;;4934433;29;20058;-80
2021/10/10 06:37:45;;;;;;;13.40;10.13;;;2.20;99.90;;;;;;4933570;29;20032;-80
2021/10/10 06:40:12;;;;;;;19.83;11.02;;;2.30;99.90;;;;;;4933721;29;20040;-81
2021/10/10 06:42:41;;;;;;;13.45;11.73;;;2.40;99.90;;;;;;4931979;29;20505;-82
2021/10/10 06:45:09;;;;;;;14.38;11.23;;;2.50;99.90;;;;;;4933393;29;20053;-81
2021/10/10 06:47:37;;;;;;;17.65;10.88;;;2.60;99.90;;;;;;4934087;29;20408;-82
2021/10/10 06:50:05;;;;;;;15.40;10.93;;;2.70;99.90;;;;;;4915953;29;20036;-82
2021/10/10 06:52:33;;;;;;;16.45;9.93;;;2.70;99.90;;;;;;4916380;29;20043;-82
2021/10/10 06:55:00;;;;;;;18.45;10.60;;;2.80;99.90;;;;;;4918061;29;20055;-81
2021/10/10 06:57:30;;;;;;;17.17;12.20;;;3.00;99.90;;;;;;4933177;29;20247;-81
2021/10/10 06:59:59;;;;;;;17.65;11.32;;;2.90;99.90;;;;;;4934897;29;20066;-81
2021/10/10 07:02:30;;;;;;;14.43;10.68;;;3.00;99.90;;;;;;4917776;29;20066;-81
2021/10/10 07:04:57;;;;;;;18.33;10.02;;;3.20;99.90;;;;;;4946320;29;20050;-81
2021/10/10 07:07:25;;;;;;;15.38;10.35;;;3.30;99.90;;;;;;4953035;29;20070;-81
2021/10/10 07:09:53;;;;;;;17.73;13.05;;;3.60;99.90;;;;;;4954009;28;20045;-81
2021/10/10 07:12:21;;;;;;;25.77;14.57;;;4.00;99.90;;;;;;4953485;29;20054;-81
2021/10/10 07:14:50;;;;;;;18.52;12.00;;;4.20;99.90;;;;;;4951468;29;20048;-79
2021/10/10 07:17:18;;;;;;;14.90;9.68;;;4.30;99.90;;;;;;4951239;29;20066;-77
2021/10/10 07:19:51;;;;;;;17.70;11.90;;;4.40;99.90;;;;;;4952468;29;20430;-80
2021/10/10 07:22:33;;;;;;;23.00;13.85;;;4.50;99.90;;;;;;4962685;28;20058;-80
2021/10/10 07:25:09;;;;;;;13.55;11.60;;;4.60;99.90;;;;;;4956610;28;20043;-81
2021/10/10 07:27:47;;;;;;;11.75;10.15;;;4.50;99.90;;;;;;4914985;29;20055;-82
2021/10/10 07:30:15;;;;;;;19.55;11.57;;;4.70;99.90;;;;;;4932722;29;20564;-79
2021/10/10 07:32:43;;;;;;;19.30;11.75;;;4.80;99.90;;;;;;4932853;29;20401;-78
2021/10/10 07:35:11;;;;;;;15.65;9.85;;;4.80;99.90;;;;;;4933141;29;20051;-78
2021/10/10 07:37:39;;;;;;;16.70;12.18;;;5.10;99.90;;;;;;4915762;29;20051;-78
2021/10/10 07:40:07;;;;;;;21.13;11.27;;;5.30;99.90;;;;;;4933129;29;20048;-79
2021/10/10 07:42:35;;;;;;;16.40;11.35;;;5.40;99.90;;;;;;4914294;29;20044;-79
2021/10/10 07:45:07;;;;;;;18.60;12.70;;;5.50;99.90;;;;;;4933044;29;20040;-79
2021/10/10 07:50:04;;;;;;;12.85;10.15;;;5.90;99.90;;;;;;4932246;29;20055;-81
2021/10/10 07:52:40;;;;;;;17.17;10.68;;;6.10;99.90;;;;;;4899699;29;20066;-83
2021/10/10 07:55:10;;;;;;;13.40;9.63;;;6.10;99.90;;;;;;4934985;29;20059;-83
2021/10/10 07:57:39;;;;;;;16.13;10.57;;;5.90;99.90;;;;;;4916998;29;20048;-83
2021/10/10 08:00:09;;;;;;;19.45;11.77;;;5.80;99.90;;;;;;4917359;29;20058;-83
2021/10/10 08:02:51;;;;;;;19.25;13.68;;;5.80;99.90;;;;;;4934245;29;20103;-83
2021/10/10 08:05:19;;;;;;;17.00;12.43;;;5.80;99.90;;;;;;4965571;28;20047;-83
2021/10/10 08:07:48;;;;;;;26.55;12.52;;;5.60;99.90;;;;;;4972787;28;20053;-83
2021/10/10 08:10:16;;;;;;;23.92;13.52;;;5.60;99.90;;;;;;4955183;28;20077;-83
2021/10/10 08:12:44;;;;;;;18.40;10.95;;;5.50;99.90;;;;;;4971632;28;20050;-83
2021/10/10 08:15:12;;;;;;;16.33;11.13;;;5.60;99.90;;;;;;4956719;28;20070;-83
2021/10/10 08:17:40;;;;;;;15.75;12.70;;;5.50;99.90;;;;;;4953023;29;20047;-83
2021/10/10 08:20:09;;;;;;;27.23;13.75;;;5.50;99.90;;;;;;4953387;29;20051;-83
2021/10/10 08:22:38;;;;;;;16.65;13.35;;;5.60;99.90;;;;;;4953095;29;20066;-84
2021/10/10 08:25:08;;;;;;;23.13;15.32;;;5.60;99.90;;;;;;4935774;29;20393;-84
2021/10/10 08:27:36;;;;;;;16.63;12.98;;;5.50;99.90;;;;;;4953443;29;20047;-83
2021/10/10 08:30:06;;;;;;;20.27;14.55;;;5.50;99.90;;;;;;4935194;29;20584;-84
2021/10/10 08:32:34;;;;;;;20.05;14.85;;;5.50;99.90;;;;;;4953056;29;20058;-83
2021/10/10 08:35:02;;;;;;;27.80;15.73;;;5.70;99.90;;;;;;4953077;29;20055;-84
2021/10/10 08:37:30;;;;;;;17.98;12.25;;;5.70;99.90;;;;;;4935363;29;20054;-86
2021/10/10 08:39:58;;;;;;;29.02;17.58;;;5.80;99.90;;;;;;4952869;29;20059;-83
2021/10/10 08:42:33;;;;;;;30.08;17.67;;;5.80;99.90;;;;;;4935036;29;20134;-84
2021/10/10 08:45:08;;;;;;;29.15;19.02;;;5.80;99.90;;;;;;4952786;29;20051;-84
2021/10/10 08:47:43;;;;;;;22.50;16.20;;;6.00;99.90;;;;;;4944948;29;20043;-84
2021/10/10 08:50:23;;;;;;;35.28;21.98;;;6.10;99.90;;;;;;4933208;29;20391;-84
2021/10/10 08:52:58;;;;;;;24.17;14.97;;;6.10;99.90;;;;;;4933661;29;20078;-84
2021/10/10 08:55:31;;;;;;;23.70;16.45;;;6.20;99.90;;;;;;4933825;29;20048;-84
2021/10/10 08:58:00;;;;;;;34.25;15.98;;;6.30;99.90;;;;;;4932335;29;20043;-84
2021/10/10 09:02:57;;;;;;;27.92;16.80;;;6.40;99.90;;;;;;4933906;29;20102;-84
2021/10/10 09:05:26;;;;;;;27.55;17.50;;;6.30;99.90;;;;;;4933449;29;20051;-84
2021/10/10 09:07:55;;;;;;;23.90;15.15;;;6.50;99.90;;;;;;4933953;29;20052;-84
2021/10/10 09:10:28;;;;;;;23.90;16.17;;;6.50;99.90;;;;;;4916256;29;20051;-83
2021/10/10 09:13:16;;;;;;;30.70;16.90;;;6.40;99.90;;;;;;4932270;29;20040;-83
2021/10/10 09:15:48;;;;;;;22.95;14.27;;;6.40;99.90;;;;;;4932887;29;20063;-84
2021/10/10 09:18:16;;;;;;;21.45;15.90;;;6.50;99.90;;;;;;4933418;29;20521;-84
2021/10/10 09:20:47;;;;;;;27.33;14.35;;;6.50;99.90;;;;;;4931536;29;20047;-84
2021/10/10 09:23:21;;;;;;;20.00;15.57;;;6.40;99.90;;;;;;4916285;29;20063;-84
2021/10/10 09:25:53;;;;;;;27.38;20.15;;;6.30;99.90;;;;;;4946358;29;20043;-84
2021/10/10 09:28:26;;;;;;;37.92;19.98;;;6.30;99.90;;;;;;4937288;29;20054;-84
2021/10/10 09:30:57;;;;;;;28.33;16.38;;;6.40;99.90;;;;;;4954890;29;20499;-84
2021/10/10 09:33:47;;;;;;;23.23;15.38;;;6.40;99.90;;;;;;4938459;29;20500;-82
2021/10/10 09:36:21;;;;;;;29.10;18.60;;;6.60;99.90;;;;;;4955882;29;20070;-80
2021/10/10 09:39:13;;;;;;;24.25;15.60;;;6.60;99.90;;;;;;4955437;29;20047;-81
2021/10/10 09:41:53;;;;;;;24.52;14.63;;;6.50;99.90;;;;;;4954823;28;20067;-81
2021/10/10 09:44:24;;;;;;;23.25;15.90;;;6.50;99.90;;;;;;4948458;28;20054;-81
2021/10/10 09:46:56;;;;;;;23.55;17.08;;;6.30;99.90;;;;;;4964391;28;20054;-80
2021/10/10 09:49:28;;;;;;;25.38;13.88;;;6.40;99.90;;;;;;4947952;28;20093;-81
2021/10/10 09:52:08;;;;;;;27.92;15.27;;;6.40;99.90;;;;;;4964985;28;20051;-81
2021/10/10 09:54:55;;;;;;;20.70;12.90;;;6.30;99.90;;;;;;4961312;28;20055;-81
2021/10/10 09:57:24;;;;;;;23.98;15.85;;;6.10;99.90;;;;;;4928065;28;20058;-80
2021/10/10 09:59:53;;;;;;;18.08;13.63;;;5.90;99.90;;;;;;4963916;28;20054;-81
2021/10/10 10:02:40;;;;;;;32.45;17.63;;;5.90;99.90;;;;;;4963338;28;20043;-81
2021/10/10 10:05:21;;;;;;;23.15;13.52;;;6.00;99.90;;;;;;4960532;28;20054;-80
2021/10/10 10:07:51;;;;;;;23.10;17.13;;;6.20;99.90;;;;;;4960645;28;20058;-80
2021/10/10 10:10:19;;;;;;;22.58;15.05;;;6.60;99.90;;;;;;4943110;29;20043;-81
2021/10/10 10:12:48;;;;;;;24.90;17.30;;;7.00;99.90;;;;;;4954347;29;20377;-81
2021/10/10 10:15:17;;;;;;;28.13;15.18;;;7.10;99.90;;;;;;4934796;29;20051;-81
2021/10/10 10:17:47;;;;;;;24.00;14.95;;;7.10;99.90;;;;;;4935573;29;20047;-82
2021/10/10 10:20:16;;;;;;;25.70;15.37;;;7.20;99.90;;;;;;4936100;29;20048;-81
2021/10/10 10:22:45;;;;;;;26.63;15.00;;;7.40;99.90;;;;;;4935107;29;20063;-81
2021/10/10 10:25:12;;;;;;;24.48;14.55;;;7.50;99.90;;;;;;4918354;29;20044;-82
2021/10/10 10:27:40;;;;;;;25.15;14.40;;;7.60;99.90;;;;;;4943329;28;20046;-81
2021/10/10 10:30:09;;;;;;;22.85;15.52;;;7.80;99.90;;;;;;4941032;29;20055;-81
2021/10/10 10:32:38;;;;;;;35.00;21.45;;;7.90;99.90;;;;;;4926487;29;20055;-82
2021/10/10 10:35:19;;;;;;;25.15;16.55;;;8.00;99.90;;;;;;4928356;29;20055;-82
2021/10/10 10:37:53;;;;;;;29.13;16.50;;;8.20;99.90;;;;;;4936515;28;20054;-81
2021/10/10 10:40:30;;;;;;;21.13;14.77;;;8.20;99.90;;;;;;4954594;29;20054;-83
2021/10/10 10:43:05;;;;;;;23.42;13.00;;;8.10;99.90;;;;;;4953104;29;20058;-83
2021/10/10 10:45:45;;;;;;;23.73;12.60;;;8.30;99.90;;;;;;4921057;29;20050;-82
2021/10/10 10:48:29;;;;;;;25.52;15.95;;;8.20;99.90;;;;;;4941231;29;20051;-82
2021/10/10 10:51:26;;;;;;;23.77;14.65;;;8.30;99.90;;;;;;4931311;29;20052;-82
2021/10/10 10:54:36;;;;;;;24.30;14.35;;;8.40;99.90;;;;;;4954145;29;20043;-82
2021/10/10 10:57:31;;;;;;;23.80;16.95;;;8.60;99.90;;;;;;4920274;29;20043;-81
2021/10/10 11:00:04;;;;;;;19.23;14.88;;;8.90;99.90;;;;;;4945128;29;20059;-81
2021/10/10 11:02:59;;;;;;;26.15;16.80;;;9.00;99.90;;;;;;4920808;29;20421;-81
2021/10/10 11:05:37;;;;;;;17.10;12.77;;;9.00;99.90;;;;;;4934524;28;20047;-82
2021/10/10 11:08:29;;;;;;;18.27;13.50;;;9.00;99.90;;;;;;4923409;29;20400;-82
2021/10/10 11:11:00;;;;;;;23.17;13.13;;;9.00;99.90;;;;;;4920285;29;20147;-80
2021/10/10 11:13:35;;;;;;;22.08;14.45;;;8.60;99.90;;;;;;4936675;29;20047;-82
2021/10/10 11:16:26;;;;;;;24.20;12.75;;;8.80;99.90;;;;;;4936793;29;20062;-82
2021/10/10 11:18:56;;;;;;;24.73;13.77;;;9.00;99.90;;;;;;4924603;29;20059;-80
2021/10/10 11:21:36;;;;;;;21.48;13.73;;;9.00;99.90;;;;;;4935661;28;20054;-81
2021/10/10 11:24:06;;;;;;;18.27;13.73;;;9.20;99.90;;;;;;4921172;29;20051;-82
2021/10/10 11:26:36;;;;;;;21.35;14.10;;;9.30;99.90;;;;;;4917991;29;20055;-81
2021/10/10 11:29:09;;;;;;;23.98;13.20;;;9.30;99.90;;;;;;4952322;28;20567;-80
2021/10/10 11:31:38;;;;;;;25.02;13.55;;;9.50;99.90;;;;;;4952532;29;20051;-80
2021/10/10 11:34:14;;;;;;;16.40;12.02;;;9.60;99.90;;;;;;4941646;29;20055;-81
2021/10/10 11:36:51;;;;;;;19.42;14.65;;;9.80;99.90;;;;;;4921204;29;20047;-81
2021/10/10 11:39:20;;;;;;;22.85;14.35;;;9.90;99.90;;;;;;4937166;29;20058;-81
2021/10/10 11:41:55;;;;;;;19.05;13.18;;;9.70;99.90;;;;;;4924438;29;20048;-81
2021/10/10 11:44:25;;;;;;;21.00;15.32;;;9.80;99.90;;;;;;4912906;29;20059;-81
2021/10/10 11:46:59;;;;;;;24.10;13.57;;;9.80;99.90;;;;;;4912123;29;20056;-81
2021/10/10 11:49:46;;;;;;;21.20;13.10;;;9.50;99.90;;;;;;4911581;29;20059;-82
2021/10/10 11:52:24;;;;;;;17.83;12.35;;;9.50;99.90;;;;;;4896800;29;20048;-81
2021/10/10 11:57:28;;;;;;;19.92;14.02;;;9.40;99.90;;;;;;4895743;29;20071;-80
2021/10/10 12:00:01;;;;;;;17.52;11.48;;;9.60;99.90;;;;;;4881168;29;20060;-81
2021/10/10 12:02:40;;;;;;;38.35;13.30;;;10.00;99.90;;;;;;4897706;29;20116;-82
2021/10/10 12:05:10;;;;;;;17.27;12.13;;;9.90;99.90;;;;;;4894759;29;20044;-82
2021/10/10 12:07:39;;;;;;;18.63;14.43;;;9.90;99.90;;;;;;4899929;29;20056;-81
2021/10/10 12:10:18;;;;;;;17.17;11.93;;;10.20;99.90;;;;;;4883663;29;20544;-82
2021/10/10 12:12:47;;;;;;;19.73;12.68;;;10.00;99.90;;;;;;4914754;29;20055;-83
2021/10/10 12:15:20;;;;;;;20.05;12.98;;;9.70;99.90;;;;;;4884443;29;20670;-84
2021/10/10 12:17:50;;;;;;;20.52;12.98;;;9.90;99.90;;;;;;4880695;29;20055;-80
2021/10/10 12:20:18;;;;;;;26.80;13.32;;;10.10;99.90;;;;;;4903603;29;20066;-80
2021/10/10 12:23:00;;;;;;;24.05;14.05;;;10.20;99.90;;;;;;4915709;29;20062;-80
2021/10/10 12:25:42;;;;;;;17.45;12.43;;;10.20;99.90;;;;;;4933289;29;20043;-80
2021/10/10 12:28:10;;;;;;;;;;;10.20;99.90;;;;;;4960677;28;20050;-81
2021/10/10 12:30:56;;;;;;;19.70;13.30;;;10.20;99.90;;;;;;4971204;28;20299;-81
2021/10/10 12:33:24;;;;;;;13.93;11.73;;;10.50;99.90;;;;;;4938600;28;20050;-80
2021/10/10 12:35:53;;;;;;;30.92;12.10;;;10.80;99.90;;;;;;4972260;28;20054;-80
2021/10/10 12:38:51;;;;;;;20.33;11.10;;;10.40;99.90;;;;;;4971675;28;20062;-80
2021/10/10 12:41:26;;;;;;;22.90;13.15;;;10.10;99.90;;;;;;4951847;28;20058;-81
2021/10/10 12:43:58;;;;;;;19.05;13.95;;;10.10;99.90;;;;;;4971514;28;20059;-80
2021/10/10 12:46:26;;;;;;;;;;;10.50;99.90;;;;;;4971717;28;20050;-79
2021/10/10 12:49:05;;;;;;;19.75;12.45;;;10.70;99.90;;;;;;4934850;28;19922;-81
2021/10/10 12:51:34;;;;;;;19.05;11.80;;;10.70;99.90;;;;;;4933365;29;20047;-80
2021/10/10 12:54:14;;;;;;;13.80;11.68;;;11.00;99.90;;;;;;4932714;29;20064;-80
2021/10/10 12:56:43;;;;;;;20.02;12.50;;;10.90;99.90;;;;;;4932499;29;20056;-80
2021/10/10 12:59:22;;;;;;;21.75;14.00;;;10.90;99.90;;;;;;4933454;29;20483;-80
2021/10/10 13:01:50;;;;;;;19.08;11.85;;;10.70;99.90;;;;;;4934063;29;20048;-80
2021/10/10 13:04:18;;;;;;;19.83;11.05;;;10.80;99.90;;;;;;4944516;29;20416;-80